^^
Your Local Weather - Clay, NY Station Historical Data
Daily Summary for February 12, 2018 Units:  Both    English   Metric
« Previous Day
Next Day »
Daily Weekly Monthly Yearly Custom
  High: Low: Average:
Temperature: 34.2 °F /  1.2 °C 21.1 °F /  -6.1 °C 27.5 °F /  -2.5 °C
Dew Point: 30.7 °F /  -0.7 °C 12.6 °F /  -10.8 °C 20.4 °F /  -6.4 °C
Humidity: 87% 66% 74%
Wind Speed: 7.0mph /  11.3km/h - 3.1mph /  5km/h
Wind Gust: 17.0mph /  27.4km/h - -
Wind- - WNW
Pressure: 30.74 in /  1040.9 hPa 30.03 in /  1016.8 hPa -
Precipitation: 0.01 in /  0.25 mm    
Historical Graphs
 
 
Tabular Data for February 12, 2018
Time Temperature Dew Point Pressure Wind Wind Speed Wind Gust Humidity Rainfall Rate (Hourly) solar
00:02 34.2 °F /  1.2 °C 30.7 °F /  -0.7 °C 30.03in /  1016.8hPa West 5.0mph /  8km/h 7.0mph /  11.3km/h 87% 0.00in /  0mm 0 W/m2
00:08 34.1 °F /  1.2 °C 30.6 °F /  -0.8 °C 30.04in /  1017.2hPa WNW 6.0mph /  9.7km/h 12.0mph /  19.3km/h 87% 0.00in /  0mm 0 W/m2
00:14 34.1 °F /  1.2 °C 30.6 °F /  -0.8 °C 30.04in /  1017.2hPa WNW 5.0mph /  8km/h 6.0mph /  9.7km/h 87% 0.00in /  0mm 0 W/m2
00:20 34.1 °F /  1.2 °C 30.6 °F /  -0.8 °C 30.04in /  1017.2hPa NW 5.0mph /  8km/h 5.0mph /  8km/h 87% 0.00in /  0mm 0 W/m2
00:26 34.0 °F /  1.1 °C 30.5 °F /  -0.8 °C 30.04in /  1017.2hPa NW 5.0mph /  8km/h 8.0mph /  12.9km/h 87% 0.00in /  0mm 0 W/m2
00:32 34.0 °F /  1.1 °C 30.5 °F /  -0.8 °C 30.05in /  1017.5hPa WNW 5.0mph /  8km/h 5.0mph /  8km/h 87% 0.00in /  0mm 0 W/m2
00:38 33.9 °F /  1.1 °C 30.2 °F /  -1 °C 30.06in /  1017.8hPa WNW 4.0mph /  6.4km/h 11.0mph /  17.7km/h 86% 0.00in /  0mm 0 W/m2
00:44 33.9 °F /  1.1 °C 30.2 °F /  -1 °C 30.06in /  1017.8hPa WNW 5.0mph /  8km/h 17.0mph /  27.4km/h 86% 0.00in /  0mm 0 W/m2
00:50 33.9 °F /  1.1 °C 29.9 °F /  -1.2 °C 30.06in /  1017.8hPa NNW 6.0mph /  9.7km/h 7.0mph /  11.3km/h 85% 0.00in /  0mm 0 W/m2
00:56 33.7 °F /  0.9 °C 29.7 °F /  -1.3 °C 30.07in /  1018.2hPa WNW 6.0mph /  9.7km/h 10.0mph /  16.1km/h 85% 0.00in /  0mm 0 W/m2
01:02 33.6 °F /  0.9 °C 29.6 °F /  -1.3 °C 30.07in /  1018.2hPa WNW 5.0mph /  8km/h 6.0mph /  9.7km/h 85% 0.00in /  0mm 0 W/m2
01:08 33.5 °F /  0.8 °C 29.5 °F /  -1.4 °C 30.08in /  1018.5hPa WNW 4.0mph /  6.4km/h 6.0mph /  9.7km/h 85% 0.00in /  0mm 0 W/m2
01:14 33.4 °F /  0.8 °C 29.4 °F /  -1.4 °C 30.09in /  1018.8hPa WNW 3.0mph /  4.8km/h 8.0mph /  12.9km/h 85% 0.00in /  0mm 0 W/m2
01:20 33.2 °F /  0.7 °C 28.9 °F /  -1.7 °C 30.09in /  1018.8hPa WNW 4.0mph /  6.4km/h 6.0mph /  9.7km/h 84% 0.00in /  0mm 0 W/m2
01:26 33.0 °F /  0.6 °C 28.7 °F /  -1.8 °C 30.10in /  1019.2hPa NW 5.0mph /  8km/h 6.0mph /  9.7km/h 84% 0.00in /  0mm 0 W/m2
01:32 32.8 °F /  0.4 °C 28.5 °F /  -1.9 °C 30.11in /  1019.5hPa NW 5.0mph /  8km/h 6.0mph /  9.7km/h 84% 0.00in /  0mm 0 W/m2
01:38 32.6 °F /  0.3 °C 28.0 °F /  -2.2 °C 30.11in /  1019.5hPa WNW 6.0mph /  9.7km/h 8.0mph /  12.9km/h 83% 0.00in /  0mm 0 W/m2
01:44 32.5 °F /  0.3 °C 27.9 °F /  -2.3 °C 30.12in /  1019.9hPa NNW 5.0mph /  8km/h 7.0mph /  11.3km/h 83% 0.00in /  0mm 0 W/m2
01:50 32.2 °F /  0.1 °C 27.3 °F /  -2.6 °C 30.12in /  1019.9hPa WNW 5.0mph /  8km/h 5.0mph /  8km/h 82% 0.00in /  0mm 0 W/m2
01:56 32.0 °F /  0 °C 27.1 °F /  -2.7 °C 30.14in /  1020.5hPa WNW 5.0mph /  8km/h 7.0mph /  11.3km/h 82% 0.00in /  0mm 0 W/m2
02:02 31.7 °F /  -0.2 °C 26.8 °F /  -2.9 °C 30.15in /  1020.9hPa WNW 6.0mph /  9.7km/h 7.0mph /  11.3km/h 82% 0.00in /  0mm 0 W/m2
02:08 31.5 °F /  -0.3 °C 26.3 °F /  -3.2 °C 30.15in /  1020.9hPa WNW 7.0mph /  11.3km/h 7.0mph /  11.3km/h 81% 0.00in /  0mm 0 W/m2
02:14 31.4 °F /  -0.3 °C 26.2 °F /  -3.2 °C 30.15in /  1020.9hPa NW 6.0mph /  9.7km/h 6.0mph /  9.7km/h 81% 0.00in /  0mm 0 W/m2
02:20 31.2 °F /  -0.4 °C 26.0 °F /  -3.3 °C 30.15in /  1020.9hPa NW 5.0mph /  8km/h 5.0mph /  8km/h 81% 0.00in /  0mm 0 W/m2
02:26 31.1 °F /  -0.5 °C 26.0 °F /  -3.3 °C 30.16in /  1021.2hPa WNW 4.0mph /  6.4km/h 5.0mph /  8km/h 81% 0.00in /  0mm 0 W/m2
02:32 31.0 °F /  -0.6 °C 25.9 °F /  -3.4 °C 30.16in /  1021.2hPa NW 4.0mph /  6.4km/h 4.0mph /  6.4km/h 81% 0.00in /  0mm 0 W/m2
02:38 30.9 °F /  -0.6 °C 25.8 °F /  -3.4 °C 30.16in /  1021.2hPa NW 4.0mph /  6.4km/h 6.0mph /  9.7km/h 81% 0.00in /  0mm 0 W/m2
02:44 30.7 °F /  -0.7 °C 25.6 °F /  -3.6 °C 30.16in /  1021.2hPa NW 4.0mph /  6.4km/h 4.0mph /  6.4km/h 81% 0.00in /  0mm 0 W/m2
02:50 30.5 °F /  -0.8 °C 25.4 °F /  -3.7 °C 30.17in /  1021.6hPa NNW 4.0mph /  6.4km/h 4.0mph /  6.4km/h 81% 0.00in /  0mm 0 W/m2
02:56 30.2 °F /  -1 °C 24.8 °F /  -4 °C 30.18in /  1021.9hPa NW 5.0mph /  8km/h 7.0mph /  11.3km/h 80% 0.00in /  0mm 0 W/m2
03:02 29.9 °F /  -1.2 °C 24.5 °F /  -4.2 °C 30.19in /  1022.2hPa West 5.0mph /  8km/h 5.0mph /  8km/h 80% 0.00in /  0mm 0 W/m2
03:08 29.8 °F /  -1.2 °C 24.1 °F /  -4.4 °C 30.20in /  1022.6hPa WNW 5.0mph /  8km/h 6.0mph /  9.7km/h 79% 0.00in /  0mm 0 W/m2
03:14 29.6 °F /  -1.3 °C 23.9 °F /  -4.5 °C 30.21in /  1022.9hPa NW 4.0mph /  6.4km/h 6.0mph /  9.7km/h 79% 0.00in /  0mm 0 W/m2
03:20 29.5 °F /  -1.4 °C 23.8 °F /  -4.6 °C 30.20in /  1022.6hPa NW 4.0mph /  6.4km/h 5.0mph /  8km/h 79% 0.00in /  0mm 0 W/m2
03:26 29.2 °F /  -1.6 °C 23.5 °F /  -4.7 °C 30.21in /  1022.9hPa WNW 5.0mph /  8km/h 8.0mph /  12.9km/h 79% 0.00in /  0mm 0 W/m2
03:32 29.0 °F /  -1.7 °C 23.0 °F /  -5 °C 30.21in /  1022.9hPa WNW 7.0mph /  11.3km/h 7.0mph /  11.3km/h 78% 0.00in /  0mm 0 W/m2
03:38 28.9 °F /  -1.7 °C 22.9 °F /  -5.1 °C 30.22in /  1023.2hPa NW 5.0mph /  8km/h 10.0mph /  16.1km/h 78% 0.00in /  0mm 0 W/m2
03:44 28.9 °F /  -1.7 °C 22.9 °F /  -5.1 °C 30.22in /  1023.2hPa NW 4.0mph /  6.4km/h 6.0mph /  9.7km/h 78% 0.00in /  0mm 0 W/m2
03:50 28.8 °F /  -1.8 °C 23.1 °F /  -4.9 °C 30.23in /  1023.6hPa NNW 4.0mph /  6.4km/h 7.0mph /  11.3km/h 79% 0.00in /  0mm 0 W/m2
03:56 28.6 °F /  -1.9 °C 22.6 °F /  -5.2 °C 30.23in /  1023.6hPa NNW 4.0mph /  6.4km/h 8.0mph /  12.9km/h 78% 0.00in /  0mm 0 W/m2
04:02 28.6 °F /  -1.9 °C 22.9 °F /  -5.1 °C 30.23in /  1023.6hPa NNW 2.0mph /  3.2km/h 3.0mph /  4.8km/h 79% 0.00in /  0mm 0 W/m2
04:08 28.5 °F /  -1.9 °C 22.5 °F /  -5.3 °C 30.24in /  1023.9hPa NNW 2.0mph /  3.2km/h 3.0mph /  4.8km/h 78% 0.00in /  0mm 0 W/m2
04:14 28.5 °F /  -1.9 °C 22.5 °F /  -5.3 °C 30.25in /  1024.3hPa NW 2.0mph /  3.2km/h 2.0mph /  3.2km/h 78% 0.00in /  0mm 0 W/m2
04:20 28.5 °F /  -1.9 °C 22.5 °F /  -5.3 °C 30.25in /  1024.3hPa WNW 3.0mph /  4.8km/h 3.0mph /  4.8km/h 78% 0.00in /  0mm 0 W/m2
04:26 28.4 °F /  -2 °C 22.4 °F /  -5.3 °C 30.25in /  1024.3hPa NW 2.0mph /  3.2km/h 3.0mph /  4.8km/h 78% 0.00in /  0mm 0 W/m2
04:32 28.4 °F /  -2 °C 22.4 °F /  -5.3 °C 30.26in /  1024.6hPa NW 1.0mph /  1.6km/h 2.0mph /  3.2km/h 78% 0.00in /  0mm 0 W/m2
04:38 28.4 °F /  -2 °C 22.4 °F /  -5.3 °C 30.26in /  1024.6hPa NW 1.0mph /  1.6km/h 3.0mph /  4.8km/h 78% 0.00in /  0mm 0 W/m2
04:44 28.5 °F /  -1.9 °C 22.5 °F /  -5.3 °C 30.26in /  1024.6hPa NW 1.0mph /  1.6km/h 3.0mph /  4.8km/h 78% 0.00in /  0mm 0 W/m2
04:50 28.5 °F /  -1.9 °C 22.5 °F /  -5.3 °C 30.26in /  1024.6hPa NW 1.0mph /  1.6km/h 1.0mph /  1.6km/h 78% 0.00in /  0mm 0 W/m2
04:56 28.5 °F /  -1.9 °C 22.5 °F /  -5.3 °C 30.26in /  1024.6hPa NW 1.0mph /  1.6km/h 2.0mph /  3.2km/h 78% 0.00in /  0mm 0 W/m2
05:02 28.5 °F /  -1.9 °C 22.5 °F /  -5.3 °C 30.27in /  1024.9hPa Calm   1.0mph /  1.6km/h 78% 0.00in /  0mm 0 W/m2
05:08 28.5 °F /  -1.9 °C 22.5 °F /  -5.3 °C 30.27in /  1024.9hPa Calm   3.0mph /  4.8km/h 78% 0.00in /  0mm 0 W/m2
05:14 28.5 °F /  -1.9 °C 22.5 °F /  -5.3 °C 30.27in /  1024.9hPa NW 1.0mph /  1.6km/h 1.0mph /  1.6km/h 78% 0.00in /  0mm 0 W/m2
05:20 28.5 °F /  -1.9 °C 22.5 °F /  -5.3 °C 30.27in /  1024.9hPa Calm     78% 0.00in /  0mm 0 W/m2
05:26 28.5 °F /  -1.9 °C 22.8 °F /  -5.1 °C 30.27in /  1024.9hPa Calm   1.0mph /  1.6km/h 79% 0.00in /  0mm 0 W/m2
05:32 28.5 °F /  -1.9 °C 22.8 °F /  -5.1 °C 30.29in /  1025.6hPa Calm   1.0mph /  1.6km/h 79% 0.00in /  0mm 0 W/m2
05:38 28.5 °F /  -1.9 °C 22.5 °F /  -5.3 °C 30.29in /  1025.6hPa Calm   1.0mph /  1.6km/h 78% 0.00in /  0mm 0 W/m2
05:40 28.5 °F /  -1.9 °C 22.5 °F /  -5.3 °C 30.28in /  1025.3hPa Calm     78% 0.00in /  0mm 0 W/m2
05:46 28.5 °F /  -1.9 °C 22.5 °F /  -5.3 °C 30.29in /  1025.6hPa Calm     78% 0.00in /  0mm 0 W/m2
05:52 28.5 °F /  -1.9 °C 22.8 °F /  -5.1 °C 30.29in /  1025.6hPa Calm     79% 0.00in /  0mm 0 W/m2
05:58 28.5 °F /  -1.9 °C 22.8 °F /  -5.1 °C 30.30in /  1026hPa Calm     79% 0.00in /  0mm 0 W/m2
06:04 28.5 °F /  -1.9 °C 22.8 °F /  -5.1 °C 30.31in /  1026.3hPa Calm     79% 0.00in /  0mm 0 W/m2
06:10 28.6 °F /  -1.9 °C 22.9 °F /  -5.1 °C 30.31in /  1026.3hPa Calm     79% 0.00in /  0mm 0 W/m2
06:16 28.6 °F /  -1.9 °C 22.9 °F /  -5.1 °C 30.31in /  1026.3hPa Calm     79% 0.00in /  0mm 0 W/m2
06:22 28.6 °F /  -1.9 °C 23.2 °F /  -4.9 °C 30.31in /  1026.3hPa Calm     80% 0.00in /  0mm 0 W/m2
06:28 28.6 °F /  -1.9 °C 23.2 °F /  -4.9 °C 30.31in /  1026.3hPa Calm     80% 0.00in /  0mm 0 W/m2
06:34 28.6 °F /  -1.9 °C 23.2 °F /  -4.9 °C 30.32in /  1026.6hPa Calm     80% 0.00in /  0mm 0 W/m2
06:40 28.6 °F /  -1.9 °C 23.2 °F /  -4.9 °C 30.31in /  1026.3hPa Calm     80% 0.00in /  0mm 0 W/m2
06:46 28.6 °F /  -1.9 °C 23.2 °F /  -4.9 °C 30.32in /  1026.6hPa Calm     80% 0.00in /  0mm 0 W/m2
06:52 28.7 °F /  -1.8 °C 23.6 °F /  -4.7 °C 30.32in /  1026.6hPa Calm     81% 0.00in /  0mm 0 W/m2
06:58 28.7 °F /  -1.8 °C 23.6 °F /  -4.7 °C 30.32in /  1026.6hPa Calm     81% 0.00in /  0mm 0 W/m2
07:04 28.7 °F /  -1.8 °C 23.6 °F /  -4.7 °C 30.32in /  1026.6hPa Calm     81% 0.00in /  0mm 0 W/m2
07:10 28.7 °F /  -1.8 °C 23.6 °F /  -4.7 °C 30.32in /  1026.6hPa Calm     81% 0.00in /  0mm 0 W/m2
07:16 28.8 °F /  -1.8 °C 23.7 °F /  -4.6 °C 30.32in /  1026.6hPa Calm     81% 0.00in /  0mm 0 W/m2
07:22 28.9 °F /  -1.7 °C 23.8 °F /  -4.6 °C 30.32in /  1026.6hPa Calm   2.0mph /  3.2km/h 81% 0.00in /  0mm 0 W/m2
07:28 29.0 °F /  -1.7 °C 23.9 °F /  -4.5 °C 30.32in /  1026.6hPa Calm   2.0mph /  3.2km/h 81% 0.00in /  0mm 5 W/m2
07:34 29.1 °F /  -1.6 °C 24.0 °F /  -4.4 °C 30.33in /  1027hPa NW 1.0mph /  1.6km/h 2.0mph /  3.2km/h 81% 0.00in /  0mm 9 W/m2
07:40 29.2 °F /  -1.6 °C 24.1 °F /  -4.4 °C 30.33in /  1027hPa WSW 2.0mph /  3.2km/h 2.0mph /  3.2km/h 81% 0.00in /  0mm 11 W/m2
07:46 29.4 °F /  -1.4 °C 24.0 °F /  -4.4 °C 30.33in /  1027hPa West 2.0mph /  3.2km/h 2.0mph /  3.2km/h 80% 0.00in /  0mm 16 W/m2
07:52 29.5 °F /  -1.4 °C 23.8 °F /  -4.6 °C 30.35in /  1027.7hPa West 2.0mph /  3.2km/h 3.0mph /  4.8km/h 79% 0.00in /  0mm 23 W/m2
07:58 29.6 °F /  -1.3 °C 23.6 °F /  -4.7 °C 30.35in /  1027.7hPa WNW 2.0mph /  3.2km/h 3.0mph /  4.8km/h 78% 0.00in /  0mm 25 W/m2
08:04 29.6 °F /  -1.3 °C 23.3 °F /  -4.8 °C 30.35in /  1027.7hPa WSW 2.0mph /  3.2km/h 2.0mph /  3.2km/h 77% 0.00in /  0mm 28 W/m2
08:10 29.6 °F /  -1.3 °C 23.3 °F /  -4.8 °C 30.36in /  1028hPa WNW 2.0mph /  3.2km/h 2.0mph /  3.2km/h 77% 0.00in /  0mm 12 W/m2
08:16 29.6 °F /  -1.3 °C 23.3 °F /  -4.8 °C 30.36in /  1028hPa WNW 2.0mph /  3.2km/h 3.0mph /  4.8km/h 77% 0.00in /  0mm 12 W/m2
08:22 29.6 °F /  -1.3 °C 23.0 °F /  -5 °C 30.37in /  1028.3hPa WNW 3.0mph /  4.8km/h 3.0mph /  4.8km/h 76% 0.00in /  0mm 12 W/m2
08:28 29.6 °F /  -1.3 °C 23.0 °F /  -5 °C 30.37in /  1028.3hPa WNW 2.0mph /  3.2km/h 3.0mph /  4.8km/h 76% 0.00in /  0mm 12 W/m2
08:34 29.5 °F /  -1.4 °C 22.9 °F /  -5.1 °C 30.37in /  1028.3hPa WNW 2.0mph /  3.2km/h 3.0mph /  4.8km/h 76% 0.00in /  0mm 46 W/m2
08:40 29.5 °F /  -1.4 °C 22.9 °F /  -5.1 °C 30.37in /  1028.3hPa West 2.0mph /  3.2km/h 2.0mph /  3.2km/h 76% 0.00in /  0mm 62 W/m2
08:46 29.5 °F /  -1.4 °C 22.9 °F /  -5.1 °C 30.38in /  1028.7hPa WNW 3.0mph /  4.8km/h 3.0mph /  4.8km/h 76% 0.00in /  0mm 70 W/m2
08:52 29.5 °F /  -1.4 °C 22.9 °F /  -5.1 °C 30.38in /  1028.7hPa WNW 3.0mph /  4.8km/h 4.0mph /  6.4km/h 76% 0.00in /  0mm 81 W/m2
08:58 29.5 °F /  -1.4 °C 22.6 °F /  -5.2 °C 30.39in /  1029hPa WNW 4.0mph /  6.4km/h 7.0mph /  11.3km/h 75% 0.00in /  0mm 109 W/m2
09:04 29.6 °F /  -1.3 °C 22.6 °F /  -5.2 °C 30.39in /  1029hPa WNW 5.0mph /  8km/h 6.0mph /  9.7km/h 75% 0.00in /  0mm 98 W/m2
09:10 29.4 °F /  -1.4 °C 22.5 °F /  -5.3 °C 30.40in /  1029.3hPa WNW 5.0mph /  8km/h 5.0mph /  8km/h 75% 0.00in /  0mm 93 W/m2
09:16 29.2 °F /  -1.6 °C 22.3 °F /  -5.4 °C 30.40in /  1029.3hPa West 5.0mph /  8km/h 7.0mph /  11.3km/h 75% 0.00in /  0mm 98 W/m2
09:22 29.2 °F /  -1.6 °C 22.3 °F /  -5.4 °C 30.40in /  1029.3hPa WNW 4.0mph /  6.4km/h 6.0mph /  9.7km/h 75% 0.00in /  0mm 123 W/m2
09:28 29.2 °F /  -1.6 °C 21.9 °F /  -5.6 °C 30.41in /  1029.7hPa NW 4.0mph /  6.4km/h 6.0mph /  9.7km/h 74% 0.00in /  0mm 88 W/m2
09:34 29.2 °F /  -1.6 °C 21.6 °F /  -5.8 °C 30.41in /  1029.7hPa West 5.0mph /  8km/h 6.0mph /  9.7km/h 73% 0.00in /  0mm 84 W/m2
09:40 29.2 °F /  -1.6 °C 21.6 °F /  -5.8 °C 30.41in /  1029.7hPa NW 4.0mph /  6.4km/h 4.0mph /  6.4km/h 73% 0.00in /  0mm 116 W/m2
09:46 29.3 °F /  -1.5 °C 21.4 °F /  -5.9 °C 30.41in /  1029.7hPa WNW 4.0mph /  6.4km/h 4.0mph /  6.4km/h 72% 0.00in /  0mm 149 W/m2
09:52 29.5 °F /  -1.4 °C 21.3 °F /  -5.9 °C 30.41in /  1029.7hPa WNW 4.0mph /  6.4km/h 4.0mph /  6.4km/h 71% 0.00in /  0mm 188 W/m2
09:58 29.6 °F /  -1.3 °C 21.0 °F /  -6.1 °C 30.41in /  1029.7hPa West 5.0mph /  8km/h 9.0mph /  14.5km/h 70% 0.00in /  0mm 250 W/m2
10:04 29.8 °F /  -1.2 °C 21.2 °F /  -6 °C 30.42in /  1030hPa NW 5.0mph /  8km/h 7.0mph /  11.3km/h 70% 0.00in /  0mm 234 W/m2
10:10 29.6 °F /  -1.3 °C 21.3 °F /  -5.9 °C 30.42in /  1030hPa WNW 5.0mph /  8km/h 7.0mph /  11.3km/h 71% 0.00in /  0mm 174 W/m2
10:16 29.3 °F /  -1.5 °C 21.1 °F /  -6.1 °C 30.43in /  1030.4hPa WNW 5.0mph /  8km/h 7.0mph /  11.3km/h 71% 0.00in /  0mm 146 W/m2
10:22 29.2 °F /  -1.6 °C 21.3 °F /  -5.9 °C 30.43in /  1030.4hPa NW 5.0mph /  8km/h 7.0mph /  11.3km/h 72% 0.00in /  0mm 134 W/m2
10:28 29.0 °F /  -1.7 °C 21.1 °F /  -6.1 °C 30.43in /  1030.4hPa West 5.0mph /  8km/h 7.0mph /  11.3km/h 72% 0.00in /  0mm 121 W/m2
10:34 28.9 °F /  -1.7 °C 21.0 °F /  -6.1 °C 30.43in /  1030.4hPa West 4.0mph /  6.4km/h 6.0mph /  9.7km/h 72% 0.00in /  0mm 202 W/m2
10:40 29.0 °F /  -1.7 °C 21.1 °F /  -6.1 °C 30.43in /  1030.4hPa WSW 5.0mph /  8km/h 5.0mph /  8km/h 72% 0.00in /  0mm 204 W/m2
10:46 29.2 °F /  -1.6 °C 21.3 °F /  -5.9 °C 30.44in /  1030.7hPa WNW 4.0mph /  6.4km/h 6.0mph /  9.7km/h 72% 0.00in /  0mm 193 W/m2
10:52 29.3 °F /  -1.5 °C 21.4 °F /  -5.9 °C 30.44in /  1030.7hPa WNW 4.0mph /  6.4km/h 6.0mph /  9.7km/h 72% 0.00in /  0mm 188 W/m2
10:58 29.3 °F /  -1.5 °C 21.1 °F /  -6.1 °C 30.44in /  1030.7hPa West 4.0mph /  6.4km/h 6.0mph /  9.7km/h 71% 0.00in /  0mm 257 W/m2
11:04 29.2 °F /  -1.6 °C 20.3 °F /  -6.5 °C 30.44in /  1030.7hPa West 5.0mph /  8km/h 13.0mph /  20.9km/h 69% 0.00in /  0mm 265 W/m2
11:10 29.4 °F /  -1.4 °C 20.8 °F /  -6.2 °C 30.44in /  1030.7hPa WNW 4.0mph /  6.4km/h 4.0mph /  6.4km/h 70% 0.00in /  0mm 225 W/m2
11:16 30.2 °F /  -1 °C 20.6 °F /  -6.3 °C 30.44in /  1030.7hPa WNW 4.0mph /  6.4km/h 5.0mph /  8km/h 67% 0.00in /  0mm 791 W/m2
11:22 30.1 °F /  -1.1 °C 20.8 °F /  -6.2 °C 30.44in /  1030.7hPa NW 5.0mph /  8km/h 6.0mph /  9.7km/h 68% 0.00in /  0mm 323 W/m2
11:28 29.9 °F /  -1.2 °C 19.9 °F /  -6.7 °C 30.45in /  1031hPa WNW 5.0mph /  8km/h 6.0mph /  9.7km/h 66% 0.00in /  0mm 301 W/m2
11:34 30.0 °F /  -1.1 °C 20.4 °F /  -6.4 °C 30.45in /  1031hPa WNW 4.0mph /  6.4km/h 5.0mph /  8km/h 67% 0.00in /  0mm 244 W/m2
11:40 29.7 °F /  -1.3 °C 19.7 °F /  -6.8 °C 30.45in /  1031hPa NW 5.0mph /  8km/h 6.0mph /  9.7km/h 66% 0.00in /  0mm 373 W/m2
11:46 30.0 °F /  -1.1 °C 20.4 °F /  -6.4 °C 30.45in /  1031hPa West 5.0mph /  8km/h 6.0mph /  9.7km/h 67% 0.00in /  0mm 294 W/m2
11:52 29.9 °F /  -1.2 °C 20.6 °F /  -6.3 °C 30.45in /  1031hPa NW 4.0mph /  6.4km/h 7.0mph /  11.3km/h 68% 0.00in /  0mm 179 W/m2
11:58 29.4 °F /  -1.4 °C 20.1 °F /  -6.6 °C 30.45in /  1031hPa WNW 5.0mph /  8km/h 8.0mph /  12.9km/h 68% 0.00in /  0mm 218 W/m2
12:04 29.4 °F /  -1.4 °C 20.5 °F /  -6.4 °C 30.46in /  1031.4hPa NW 5.0mph /  8km/h 7.0mph /  11.3km/h 69% 0.00in /  0mm 176 W/m2
12:10 29.4 °F /  -1.4 °C 20.5 °F /  -6.4 °C 30.45in /  1031hPa West 4.0mph /  6.4km/h 4.0mph /  6.4km/h 69% 0.00in /  0mm 295 W/m2
12:16 29.6 °F /  -1.3 °C 20.7 °F /  -6.3 °C 30.46in /  1031.4hPa WSW 3.0mph /  4.8km/h 5.0mph /  8km/h 69% 0.00in /  0mm 195 W/m2
12:22 29.6 °F /  -1.3 °C 20.7 °F /  -6.3 °C 30.46in /  1031.4hPa NW 4.0mph /  6.4km/h 4.0mph /  6.4km/h 69% 0.00in /  0mm 127 W/m2
12:28 29.4 °F /  -1.4 °C 20.5 °F /  -6.4 °C 30.46in /  1031.4hPa WNW 4.0mph /  6.4km/h 10.0mph /  16.1km/h 69% 0.00in /  0mm 104 W/m2
12:34 29.2 °F /  -1.6 °C 20.6 °F /  -6.3 °C 30.46in /  1031.4hPa WNW 4.0mph /  6.4km/h 10.0mph /  16.1km/h 70% 0.00in /  0mm 109 W/m2
12:40 29.0 °F /  -1.7 °C 20.8 °F /  -6.2 °C 30.46in /  1031.4hPa NW 4.0mph /  6.4km/h 10.0mph /  16.1km/h 71% 0.00in /  0mm 118 W/m2
12:46 28.6 °F /  -1.9 °C 21.0 °F /  -6.1 °C 30.47in /  1031.7hPa WNW 6.0mph /  9.7km/h 10.0mph /  16.1km/h 73% 0.00in /  0mm 128 W/m2
12:52 28.5 °F /  -1.9 °C 21.3 °F /  -5.9 °C 30.46in /  1031.4hPa NW 5.0mph /  8km/h 6.0mph /  9.7km/h 74% 0.00in /  0mm 162 W/m2
12:58 28.5 °F /  -1.9 °C 21.9 °F /  -5.6 °C 30.46in /  1031.4hPa WNW 4.0mph /  6.4km/h 6.0mph /  9.7km/h 76% 0.00in /  0mm 125 W/m2
13:04 28.0 °F /  -2.2 °C 21.7 °F /  -5.7 °C 30.47in /  1031.7hPa WNW 4.0mph /  6.4km/h 4.0mph /  6.4km/h 77% 0.00in /  0mm 120 W/m2
13:10 27.8 °F /  -2.3 °C 22.1 °F /  -5.5 °C 30.47in /  1031.7hPa WNW 5.0mph /  8km/h 5.0mph /  8km/h 79% 0.00in /  0mm 163 W/m2
13:16 27.6 °F /  -2.4 °C 22.2 °F /  -5.4 °C 30.48in /  1032.1hPa NW 5.0mph /  8km/h 5.0mph /  8km/h 80% 0.00in /  0mm 121 W/m2
13:22 27.4 °F /  -2.6 °C 22.3 °F /  -5.4 °C 30.48in /  1032.1hPa NW 5.0mph /  8km/h 7.0mph /  11.3km/h 81% 0.00in /  0mm 141 W/m2
13:28 27.3 °F /  -2.6 °C 22.5 °F /  -5.3 °C 30.48in /  1032.1hPa WNW 5.0mph /  8km/h 7.0mph /  11.3km/h 82% 0.00in /  0mm 165 W/m2
13:34 27.3 °F /  -2.6 °C 22.5 °F /  -5.3 °C 30.48in /  1032.1hPa WNW 5.0mph /  8km/h 6.0mph /  9.7km/h 82% 0.00in /  0mm 162 W/m2
13:40 27.3 °F /  -2.6 °C 22.8 °F /  -5.1 °C 30.48in /  1032.1hPa WNW 5.0mph /  8km/h 5.0mph /  8km/h 83% 0.00in /  0mm 209 W/m2
13:46 27.4 °F /  -2.6 °C 22.9 °F /  -5.1 °C 30.48in /  1032.1hPa WNW 4.0mph /  6.4km/h 6.0mph /  9.7km/h 83% 0.00in /  0mm 204 W/m2
13:52 27.4 °F /  -2.6 °C 22.9 °F /  -5.1 °C 30.48in /  1032.1hPa WNW 4.0mph /  6.4km/h 4.0mph /  6.4km/h 83% 0.00in /  0mm 199 W/m2
13:58 27.5 °F /  -2.5 °C 23.0 °F /  -5 °C 30.49in /  1032.4hPa WNW 4.0mph /  6.4km/h 4.0mph /  6.4km/h 83% 0.00in /  0mm 178 W/m2
14:04 27.3 °F /  -2.6 °C 22.8 °F /  -5.1 °C 30.49in /  1032.4hPa WNW 4.0mph /  6.4km/h 5.0mph /  8km/h 83% 0.00in /  0mm 153 W/m2
14:10 27.1 °F /  -2.7 °C 22.3 °F /  -5.4 °C 30.49in /  1032.4hPa WNW 5.0mph /  8km/h 5.0mph /  8km/h 82% 0.00in /  0mm 174 W/m2
14:16 27.1 °F /  -2.7 °C 22.0 °F /  -5.6 °C 30.49in /  1032.4hPa NW 5.0mph /  8km/h 8.0mph /  12.9km/h 81% 0.00in /  0mm 209 W/m2
14:22 27.2 °F /  -2.7 °C 21.5 °F /  -5.8 °C 30.49in /  1032.4hPa NW 4.0mph /  6.4km/h 4.0mph /  6.4km/h 79% 0.00in /  0mm 190 W/m2
14:28 27.2 °F /  -2.7 °C 21.2 °F /  -6 °C 30.49in /  1032.4hPa NW 4.0mph /  6.4km/h 6.0mph /  9.7km/h 78% 0.00in /  0mm 185 W/m2
14:34 27.1 °F /  -2.7 °C 21.2 °F /  -6 °C 30.50in /  1032.7hPa WNW 5.0mph /  8km/h 6.0mph /  9.7km/h 78% 0.00in /  0mm 366 W/m2
14:40 27.4 °F /  -2.6 °C 21.4 °F /  -5.9 °C 30.51in /  1033.1hPa WNW 5.0mph /  8km/h 5.0mph /  8km/h 78% 0.00in /  0mm 257 W/m2
14:46 27.9 °F /  -2.3 °C 21.9 °F /  -5.6 °C 30.51in /  1033.1hPa West 4.0mph /  6.4km/h 5.0mph /  8km/h 78% 0.00in /  0mm 244 W/m2
14:52 27.6 °F /  -2.4 °C 21.3 °F /  -5.9 °C 30.51in /  1033.1hPa WNW 4.0mph /  6.4km/h 4.0mph /  6.4km/h 77% 0.00in /  0mm 241 W/m2
14:58 27.2 °F /  -2.7 °C 20.9 °F /  -6.2 °C 30.52in /  1033.4hPa West 5.0mph /  8km/h 11.0mph /  17.7km/h 77% 0.00in /  0mm 162 W/m2
15:04 26.9 °F /  -2.8 °C 20.3 °F /  -6.5 °C 30.52in /  1033.4hPa NW 6.0mph /  9.7km/h 8.0mph /  12.9km/h 76% 0.00in /  0mm 197 W/m2
15:10 27.6 °F /  -2.4 °C 20.1 °F /  -6.6 °C 30.52in /  1033.4hPa WNW 6.0mph /  9.7km/h 6.0mph /  9.7km/h 73% 0.00in /  0mm 512 W/m2
15:16 27.7 °F /  -2.4 °C 19.8 °F /  -6.8 °C 30.52in /  1033.4hPa WNW 5.0mph /  8km/h 6.0mph /  9.7km/h 72% 0.00in /  0mm 221 W/m2
15:22 27.4 °F /  -2.6 °C 19.6 °F /  -6.9 °C 30.52in /  1033.4hPa NW 6.0mph /  9.7km/h 6.0mph /  9.7km/h 72% 0.00in /  0mm 105 W/m2
15:28 27.5 °F /  -2.5 °C 19.7 °F /  -6.8 °C 30.53in /  1033.7hPa WNW 4.0mph /  6.4km/h 6.0mph /  9.7km/h 72% 0.00in /  0mm 139 W/m2
15:34 27.4 °F /  -2.6 °C 19.2 °F /  -7.1 °C 30.54in /  1034.1hPa NNW 4.0mph /  6.4km/h 6.0mph /  9.7km/h 71% 0.00in /  0mm 123 W/m2
15:40 27.3 °F /  -2.6 °C 18.8 °F /  -7.3 °C 30.54in /  1034.1hPa WNW 4.0mph /  6.4km/h 6.0mph /  9.7km/h 70% 0.00in /  0mm 107 W/m2
15:46 27.2 °F /  -2.7 °C 18.7 °F /  -7.4 °C 30.54in /  1034.1hPa WNW 5.0mph /  8km/h 6.0mph /  9.7km/h 70% 0.00in /  0mm 81 W/m2
15:52 27.1 °F /  -2.7 °C 17.9 °F /  -7.8 °C 30.55in /  1034.4hPa WNW 5.0mph /  8km/h 7.0mph /  11.3km/h 68% 0.00in /  0mm 63 W/m2
16:00 26.9 °F /  -2.8 °C 18.1 °F /  -7.7 °C 30.56in /  1034.8hPa WNW 5.0mph /  8km/h 5.0mph /  8km/h 69% 0.00in /  0mm 86 W/m2
16:06 26.9 °F /  -2.8 °C 18.1 °F /  -7.7 °C 30.56in /  1034.8hPa WNW 4.0mph /  6.4km/h 7.0mph /  11.3km/h 69% 0.00in /  0mm 70 W/m2
16:12 26.8 °F /  -2.9 °C 17.6 °F /  -8 °C 30.56in /  1034.8hPa WNW 5.0mph /  8km/h 8.0mph /  12.9km/h 68% 0.00in /  0mm 79 W/m2
16:18 26.8 °F /  -2.9 °C 18.0 °F /  -7.8 °C 30.56in /  1034.8hPa WNW 5.0mph /  8km/h 8.0mph /  12.9km/h 69% 0.00in /  0mm 77 W/m2
16:24 26.7 °F /  -2.9 °C 17.6 °F /  -8 °C 30.56in /  1034.8hPa WNW 4.0mph /  6.4km/h 5.0mph /  8km/h 68% 0.00in /  0mm 58 W/m2
16:30 26.6 °F /  -3 °C 17.5 °F /  -8.1 °C 30.57in /  1035.1hPa NW 5.0mph /  8km/h 10.0mph /  16.1km/h 68% 0.00in /  0mm 67 W/m2
16:36 26.5 °F /  -3.1 °C 17.4 °F /  -8.1 °C 30.57in /  1035.1hPa WNW 5.0mph /  8km/h 10.0mph /  16.1km/h 68% 0.00in /  0mm 47 W/m2
16:42 26.4 °F /  -3.1 °C 17.3 °F /  -8.2 °C 30.57in /  1035.1hPa NW 5.0mph /  8km/h 6.0mph /  9.7km/h 68% 0.00in /  0mm 39 W/m2
16:48 26.3 °F /  -3.2 °C 17.2 °F /  -8.2 °C 30.57in /  1035.1hPa WNW 4.0mph /  6.4km/h 6.0mph /  9.7km/h 68% 0.00in /  0mm 32 W/m2
16:54 26.3 °F /  -3.2 °C 17.2 °F /  -8.2 °C 30.58in /  1035.4hPa WNW 4.0mph /  6.4km/h 4.0mph /  6.4km/h 68% 0.00in /  0mm 26 W/m2
17:00 26.2 °F /  -3.2 °C 17.1 °F /  -8.3 °C 30.58in /  1035.4hPa NW 4.0mph /  6.4km/h 4.0mph /  6.4km/h 68% 0.00in /  0mm 23 W/m2
17:06 26.1 °F /  -3.3 °C 17.0 °F /  -8.3 °C 30.59in /  1035.8hPa West 4.0mph /  6.4km/h 8.0mph /  12.9km/h 68% 0.00in /  0mm 18 W/m2
17:12 26.0 °F /  -3.3 °C 16.9 °F /  -8.4 °C 30.59in /  1035.8hPa NW 5.0mph /  8km/h 5.0mph /  8km/h 68% 0.00in /  0mm 12 W/m2
17:18 25.9 °F /  -3.4 °C 16.8 °F /  -8.4 °C 30.59in /  1035.8hPa NW 4.0mph /  6.4km/h 5.0mph /  8km/h 68% 0.00in /  0mm 9 W/m2
17:24 25.7 °F /  -3.5 °C 16.3 °F /  -8.7 °C 30.59in /  1035.8hPa WNW 4.0mph /  6.4km/h 5.0mph /  8km/h 67% 0.00in /  0mm 7 W/m2
17:30 25.6 °F /  -3.6 °C 16.5 °F /  -8.6 °C 30.59in /  1035.8hPa NW 3.0mph /  4.8km/h 6.0mph /  9.7km/h 68% 0.00in /  0mm 0 W/m2
17:36 25.4 °F /  -3.7 °C 16.0 °F /  -8.9 °C 30.60in /  1036.1hPa NW 3.0mph /  4.8km/h 6.0mph /  9.7km/h 67% 0.00in /  0mm 0 W/m2
17:42 25.3 °F /  -3.7 °C 15.9 °F /  -8.9 °C 30.60in /  1036.1hPa WNW 5.0mph /  8km/h 5.0mph /  8km/h 67% 0.00in /  0mm 0 W/m2
17:48 25.2 °F /  -3.8 °C 15.8 °F /  -9 °C 30.60in /  1036.1hPa WNW 4.0mph /  6.4km/h 6.0mph /  9.7km/h 67% 0.00in /  0mm 0 W/m2
17:54 25.0 °F /  -3.9 °C 15.6 °F /  -9.1 °C 30.61in /  1036.5hPa NW 4.0mph /  6.4km/h 6.0mph /  9.7km/h 67% 0.00in /  0mm 0 W/m2
18:00 25.0 °F /  -3.9 °C 15.6 °F /  -9.1 °C 30.61in /  1036.5hPa WNW 4.0mph /  6.4km/h 4.0mph /  6.4km/h 67% 0.00in /  0mm 0 W/m2
18:06 25.0 °F /  -3.9 °C 15.6 °F /  -9.1 °C 30.62in /  1036.8hPa WNW 4.0mph /  6.4km/h 6.0mph /  9.7km/h 67% 0.00in /  0mm 0 W/m2
18:12 24.9 °F /  -3.9 °C 15.5 °F /  -9.2 °C 30.62in /  1036.8hPa WNW 4.0mph /  6.4km/h 4.0mph /  6.4km/h 67% 0.00in /  0mm 0 W/m2
18:18 24.8 °F /  -4 °C 15.4 °F /  -9.2 °C 30.63in /  1037.1hPa WNW 4.0mph /  6.4km/h 9.0mph /  14.5km/h 67% 0.00in /  0mm 0 W/m2
18:24 24.7 °F /  -4.1 °C 15.3 °F /  -9.3 °C 30.63in /  1037.1hPa NNW 4.0mph /  6.4km/h 5.0mph /  8km/h 67% 0.00in /  0mm 0 W/m2
18:30 24.6 °F /  -4.1 °C 15.2 °F /  -9.3 °C 30.63in /  1037.1hPa WNW 3.0mph /  4.8km/h 4.0mph /  6.4km/h 67% 0.00in /  0mm 0 W/m2
18:36 24.5 °F /  -4.2 °C 15.1 °F /  -9.4 °C 30.63in /  1037.1hPa WNW 3.0mph /  4.8km/h 6.0mph /  9.7km/h 67% 0.00in /  0mm 0 W/m2
18:42 24.4 °F /  -4.2 °C 15.0 °F /  -9.4 °C 30.63in /  1037.1hPa NW 3.0mph /  4.8km/h 5.0mph /  8km/h 67% 0.00in /  0mm 0 W/m2
18:48 24.2 °F /  -4.3 °C 14.8 °F /  -9.6 °C 30.63in /  1037.1hPa WNW 2.0mph /  3.2km/h 5.0mph /  8km/h 67% 0.00in /  0mm 0 W/m2
18:54 24.0 °F /  -4.4 °C 14.6 °F /  -9.7 °C 30.64in /  1037.5hPa NW 2.0mph /  3.2km/h 3.0mph /  4.8km/h 67% 0.00in /  0mm 0 W/m2
19:00 24.1 °F /  -4.4 °C 14.7 °F /  -9.6 °C 30.64in /  1037.5hPa WNW 2.0mph /  3.2km/h 2.0mph /  3.2km/h 67% 0.00in /  0mm 0 W/m2
19:06 24.0 °F /  -4.4 °C 14.6 °F /  -9.7 °C 30.64in /  1037.5hPa NW 2.0mph /  3.2km/h 3.0mph /  4.8km/h 67% 0.00in /  0mm 0 W/m2
19:12 24.0 °F /  -4.4 °C 14.6 °F /  -9.7 °C 30.65in /  1037.8hPa WNW 2.0mph /  3.2km/h 2.0mph /  3.2km/h 67% 0.00in /  0mm 0 W/m2
19:18 24.1 °F /  -4.4 °C 14.7 °F /  -9.6 °C 30.65in /  1037.8hPa WNW 2.0mph /  3.2km/h 2.0mph /  3.2km/h 67% 0.00in /  0mm 0 W/m2
19:24 24.1 °F /  -4.4 °C 14.7 °F /  -9.6 °C 30.65in /  1037.8hPa West 2.0mph /  3.2km/h 5.0mph /  8km/h 67% 0.00in /  0mm 0 W/m2
19:30 24.0 °F /  -4.4 °C 14.6 °F /  -9.7 °C 30.65in /  1037.8hPa NW 2.0mph /  3.2km/h 2.0mph /  3.2km/h 67% 0.00in /  0mm 0 W/m2
19:36 24.0 °F /  -4.4 °C 14.6 °F /  -9.7 °C 30.65in /  1037.8hPa NW 2.0mph /  3.2km/h 5.0mph /  8km/h 67% 0.00in /  0mm 0 W/m2
19:42 23.9 °F /  -4.5 °C 14.5 °F /  -9.7 °C 30.65in /  1037.8hPa NW 2.0mph /  3.2km/h 5.0mph /  8km/h 67% 0.00in /  0mm 0 W/m2
19:48 24.0 °F /  -4.4 °C 14.6 °F /  -9.7 °C 30.66in /  1038.1hPa NW 2.0mph /  3.2km/h 5.0mph /  8km/h 67% 0.00in /  0mm 0 W/m2
19:54 23.9 °F /  -4.5 °C 14.5 °F /  -9.7 °C 30.66in /  1038.1hPa NW 2.0mph /  3.2km/h 2.0mph /  3.2km/h 67% 0.00in /  0mm 0 W/m2
20:00 23.8 °F /  -4.6 °C 14.4 °F /  -9.8 °C 30.66in /  1038.1hPa NW 2.0mph /  3.2km/h 2.0mph /  3.2km/h 67% 0.00in /  0mm 0 W/m2
20:06 23.7 °F /  -4.6 °C 14.3 °F /  -9.8 °C 30.67in /  1038.5hPa WNW 2.0mph /  3.2km/h 5.0mph /  8km/h 67% 0.00in /  0mm 0 W/m2
20:12 23.6 °F /  -4.7 °C 14.2 °F /  -9.9 °C 30.67in /  1038.5hPa WNW 2.0mph /  3.2km/h 3.0mph /  4.8km/h 67% 0.00in /  0mm 0 W/m2
20:18 23.4 °F /  -4.8 °C 14.0 °F /  -10 °C 30.67in /  1038.5hPa NW 1.0mph /  1.6km/h 4.0mph /  6.4km/h 67% 0.00in /  0mm 0 W/m2
20:24 23.3 °F /  -4.8 °C 14.0 °F /  -10 °C 30.67in /  1038.5hPa WNW 2.0mph /  3.2km/h 4.0mph /  6.4km/h 67% 0.00in /  0mm 0 W/m2
20:30 23.0 °F /  -5 °C 13.7 °F /  -10.2 °C 30.67in /  1038.5hPa WNW 1.0mph /  1.6km/h 1.0mph /  1.6km/h 67% 0.00in /  0mm 0 W/m2
20:36 22.9 °F /  -5.1 °C 13.9 °F /  -10.1 °C 30.67in /  1038.5hPa WNW 1.0mph /  1.6km/h 3.0mph /  4.8km/h 68% 0.00in /  0mm 0 W/m2
20:42 22.7 °F /  -5.2 °C 13.7 °F /  -10.2 °C 30.67in /  1038.5hPa WNW 1.0mph /  1.6km/h 2.0mph /  3.2km/h 68% 0.00in /  0mm 0 W/m2
20:48 22.4 °F /  -5.3 °C 13.4 °F /  -10.3 °C 30.68in /  1038.8hPa WNW 1.0mph /  1.6km/h 3.0mph /  4.8km/h 68% 0.00in /  0mm 0 W/m2
20:54 22.3 °F /  -5.4 °C 13.3 °F /  -10.4 °C 30.68in /  1038.8hPa WNW 1.0mph /  1.6km/h 3.0mph /  4.8km/h 68% 0.00in /  0mm 0 W/m2
21:00 22.0 °F /  -5.6 °C 13.0 °F /  -10.6 °C 30.68in /  1038.8hPa WNW 1.0mph /  1.6km/h 2.0mph /  3.2km/h 68% 0.00in /  0mm 0 W/m2
21:06 21.9 °F /  -5.6 °C 13.3 °F /  -10.4 °C 30.69in /  1039.2hPa Calm   2.0mph /  3.2km/h 69% 0.00in /  0mm 0 W/m2
21:12 21.7 °F /  -5.7 °C 13.1 °F /  -10.5 °C 30.69in /  1039.2hPa Calm     69% 0.00in /  0mm 0 W/m2
21:18 21.5 °F /  -5.8 °C 12.9 °F /  -10.6 °C 30.70in /  1039.5hPa Calm     69% 0.00in /  0mm 0 W/m2
21:24 21.3 °F /  -5.9 °C 12.7 °F /  -10.7 °C 30.70in /  1039.5hPa Calm     69% 0.00in /  0mm 0 W/m2
21:30 21.2 °F /  -6 °C 12.9 °F /  -10.6 °C 30.70in /  1039.5hPa Calm     70% 0.00in /  0mm 0 W/m2
21:36 21.1 °F /  -6.1 °C 12.8 °F /  -10.7 °C 30.70in /  1039.5hPa Calm   1.0mph /  1.6km/h 70% 0.00in /  0mm 0 W/m2
21:42 21.2 °F /  -6 °C 13.3 °F /  -10.4 °C 30.71in /  1039.8hPa Calm     71% 0.00in /  0mm 0 W/m2
21:48 21.3 °F /  -5.9 °C 13.4 °F /  -10.3 °C 30.71in /  1039.8hPa Calm   1.0mph /  1.6km/h 71% 0.00in /  0mm 0 W/m2
21:54 21.5 °F /  -5.8 °C 13.5 °F /  -10.3 °C 30.71in /  1039.8hPa Calm   2.0mph /  3.2km/h 71% 0.00in /  0mm 0 W/m2
22:00 21.6 °F /  -5.8 °C 13.6 °F /  -10.2 °C 30.71in /  1039.8hPa Calm     71% 0.00in /  0mm 0 W/m2
22:06 21.7 °F /  -5.7 °C 13.7 °F /  -10.2 °C 30.72in /  1040.2hPa Calm   2.0mph /  3.2km/h 71% 0.00in /  0mm 0 W/m2
22:12 22.1 °F /  -5.5 °C 14.1 °F /  -9.9 °C 30.72in /  1040.2hPa WNW 1.0mph /  1.6km/h 1.0mph /  1.6km/h 71% 0.00in /  0mm 0 W/m2
22:18 22.3 °F /  -5.4 °C 14.3 °F /  -9.8 °C 30.72in /  1040.2hPa WNW 1.0mph /  1.6km/h 1.0mph /  1.6km/h 71% 0.00in /  0mm 0 W/m2
22:24 22.4 °F /  -5.3 °C 14.1 °F /  -9.9 °C 30.72in /  1040.2hPa WNW 1.0mph /  1.6km/h 2.0mph /  3.2km/h 70% 0.00in /  0mm 0 W/m2
22:30 22.4 °F /  -5.3 °C 14.1 °F /  -9.9 °C 30.72in /  1040.2hPa WNW 1.0mph /  1.6km/h 1.0mph /  1.6km/h 70% 0.00in /  0mm 0 W/m2
22:36 22.5 °F /  -5.3 °C 14.2 °F /  -9.9 °C 30.73in /  1040.5hPa WNW 1.0mph /  1.6km/h 2.0mph /  3.2km/h 70% 0.00in /  0mm 0 W/m2
22:42 22.5 °F /  -5.3 °C 14.2 °F /  -9.9 °C 30.73in /  1040.5hPa WNW 1.0mph /  1.6km/h 1.0mph /  1.6km/h 70% 0.00in /  0mm 0 W/m2
22:48 22.4 °F /  -5.3 °C 13.8 °F /  -10.1 °C 30.73in /  1040.5hPa NW 2.0mph /  3.2km/h 4.0mph /  6.4km/h 69% 0.00in /  0mm 0 W/m2
22:54 22.4 °F /  -5.3 °C 13.8 °F /  -10.1 °C 30.73in /  1040.5hPa NW 2.0mph /  3.2km/h 4.0mph /  6.4km/h 69% 0.00in /  0mm 0 W/m2
23:00 22.4 °F /  -5.3 °C 13.4 °F /  -10.3 °C 30.73in /  1040.5hPa NNW 2.0mph /  3.2km/h 3.0mph /  4.8km/h 68% 0.00in /  0mm 0 W/m2
23:06 22.3 °F /  -5.4 °C 13.3 °F /  -10.4 °C 30.73in /  1040.5hPa NW 3.0mph /  4.8km/h 5.0mph /  8km/h 68% 0.00in /  0mm 0 W/m2
23:12 22.3 °F /  -5.4 °C 13.0 °F /  -10.6 °C 30.74in /  1040.9hPa NW 3.0mph /  4.8km/h 3.0mph /  4.8km/h 67% 0.00in /  0mm 0 W/m2
23:18 22.2 °F /  -5.4 °C 12.9 °F /  -10.6 °C 30.73in /  1040.5hPa West 2.0mph /  3.2km/h 3.0mph /  4.8km/h 67% 0.00in /  0mm 0 W/m2
23:24 22.2 °F /  -5.4 °C 12.9 °F /  -10.6 °C 30.73in /  1040.5hPa North 2.0mph /  3.2km/h 4.0mph /  6.4km/h 67% 0.00in /  0mm 0 W/m2
23:30 22.1 °F /  -5.5 °C 12.8 °F /  -10.7 °C 30.73in /  1040.5hPa WNW 2.0mph /  3.2km/h 2.0mph /  3.2km/h 67% 0.00in /  0mm 0 W/m2
23:36 22.0 °F /  -5.6 °C 12.7 °F /  -10.7 °C 30.73in /  1040.5hPa NNW 2.0mph /  3.2km/h 8.0mph /  12.9km/h 67% 0.00in /  0mm 0 W/m2
23:42 22.0 °F /  -5.6 °C 12.7 °F /  -10.7 °C 30.73in /  1040.5hPa NW 2.0mph /  3.2km/h 2.0mph /  3.2km/h 67% 0.00in /  0mm 0 W/m2
23:48 22.0 °F /  -5.6 °C 12.7 °F /  -10.7 °C 30.74in /  1040.9hPa NW 2.0mph /  3.2km/h 4.0mph /  6.4km/h 67% 0.00in /  0mm 0 W/m2
23:54 21.9 °F /  -5.6 °C 12.6 °F /  -10.8 °C 30.74in /  1040.9hPa NNW 2.0mph /  3.2km/h 3.0mph /  4.8km/h 67% 0.00in /  0mm 0 W/m2
Country Meadow, Clay, NY, USA
Compliments of Weather Underground - 2 mb